sensor_id;sensor_type;location;lat;lon;timestamp;temperature;humidity
67364;HTU21D;54250;45.572;38.086;2023-04-16T00:00:52;6.38;88.76
67364;HTU21D;54250;45.572;38.086;2023-04-16T00:03:18;6.39;88.70
67364;HTU21D;54250;45.572;38.086;2023-04-16T00:05:44;6.40;88.73
67364;HTU21D;54250;45.572;38.086;2023-04-16T00:08:10;6.40;88.69
67364;HTU21D;54250;45.572;38.086;2023-04-16T00:10:36;6.42;88.70
67364;HTU21D;54250;45.572;38.086;2023-04-16T00:13:02;6.41;88.73
67364;HTU21D;54250;45.572;38.086;2023-04-16T00:15:28;6.38;88.66
67364;HTU21D;54250;45.572;38.086;2023-04-16T00:17:54;6.35;88.62
67364;HTU21D;54250;45.572;38.086;2023-04-16T00:20:20;6.27;88.60
67364;HTU21D;54250;45.572;38.086;2023-04-16T00:22:46;6.27;88.51
67364;HTU21D;54250;45.572;38.086;2023-04-16T00:25:12;6.25;88.44
67364;HTU21D;54250;45.572;38.086;2023-04-16T00:27:38;6.20;88.44
67364;HTU21D;54250;45.572;38.086;2023-04-16T00:30:05;6.20;88.41
67364;HTU21D;54250;45.572;38.086;2023-04-16T00:32:32;6.14;88.42
67364;HTU21D;54250;45.572;38.086;2023-04-16T00:34:58;6.14;88.42
67364;HTU21D;54250;45.572;38.086;2023-04-16T00:37:24;6.13;88.45
67364;HTU21D;54250;45.572;38.086;2023-04-16T00:39:50;6.11;88.44
67364;HTU21D;54250;45.572;38.086;2023-04-16T00:42:16;6.11;88.41
67364;HTU21D;54250;45.572;38.086;2023-04-16T00:44:42;6.11;88.39
67364;HTU21D;54250;45.572;38.086;2023-04-16T00:47:08;6.09;88.45
67364;HTU21D;54250;45.572;38.086;2023-04-16T00:49:34;6.08;88.43
67364;HTU21D;54250;45.572;38.086;2023-04-16T00:52:01;6.08;88.44
67364;HTU21D;54250;45.572;38.086;2023-04-16T00:54:28;6.06;88.44
67364;HTU21D;54250;45.572;38.086;2023-04-16T00:56:54;6.05;88.45
67364;HTU21D;54250;45.572;38.086;2023-04-16T00:59:21;6.05;88.44
67364;HTU21D;54250;45.572;38.086;2023-04-16T01:01:48;6.02;88.46
67364;HTU21D;54250;45.572;38.086;2023-04-16T01:04:14;6.02;88.53
67364;HTU21D;54250;45.572;38.086;2023-04-16T01:06:41;5.97;88.66
67364;HTU21D;54250;45.572;38.086;2023-04-16T01:09:09;5.94;88.77
67364;HTU21D;54250;45.572;38.086;2023-04-16T01:11:36;5.94;88.86
67364;HTU21D;54250;45.572;38.086;2023-04-16T01:14:03;5.92;88.84
67364;HTU21D;54250;45.572;38.086;2023-04-16T01:16:29;5.93;88.82
67364;HTU21D;54250;45.572;38.086;2023-04-16T01:18:55;5.93;88.77
67364;HTU21D;54250;45.572;38.086;2023-04-16T01:21:21;5.92;88.83
67364;HTU21D;54250;45.572;38.086;2023-04-16T01:23:47;5.91;88.88
67364;HTU21D;54250;45.572;38.086;2023-04-16T01:26:13;5.86;88.97
67364;HTU21D;54250;45.572;38.086;2023-04-16T01:28:40;5.87;89.02
67364;HTU21D;54250;45.572;38.086;2023-04-16T01:31:06;5.85;89.05
67364;HTU21D;54250;45.572;38.086;2023-04-16T01:33:52;5.86;89.12
67364;HTU21D;54250;45.572;38.086;2023-04-16T01:36:19;5.83;89.14
67364;HTU21D;54250;45.572;38.086;2023-04-16T01:38:45;5.84;89.14
67364;HTU21D;54250;45.572;38.086;2023-04-16T01:41:11;5.87;89.05
67364;HTU21D;54250;45.572;38.086;2023-04-16T01:43:37;5.87;89.03
67364;HTU21D;54250;45.572;38.086;2023-04-16T01:46:17;5.87;88.99
67364;HTU21D;54250;45.572;38.086;2023-04-16T01:48:45;5.85;89.05
67364;HTU21D;54250;45.572;38.086;2023-04-16T01:51:11;5.84;89.12
67364;HTU21D;54250;45.572;38.086;2023-04-16T01:53:38;5.85;89.12
67364;HTU21D;54250;45.572;38.086;2023-04-16T01:56:05;5.83;89.16
67364;HTU21D;54250;45.572;38.086;2023-04-16T01:58:31;5.82;89.28
67364;HTU21D;54250;45.572;38.086;2023-04-16T02:00:58;5.83;89.30
67364;HTU21D;54250;45.572;38.086;2023-04-16T02:03:25;5.83;89.36
67364;HTU21D;54250;45.572;38.086;2023-04-16T02:05:52;5.80;89.44
67364;HTU21D;54250;45.572;38.086;2023-04-16T02:08:18;5.77;89.52
67364;HTU21D;54250;45.572;38.086;2023-04-16T02:10:46;5.75;89.60
67364;HTU21D;54250;45.572;38.086;2023-04-16T02:13:14;5.75;89.60
67364;HTU21D;54250;45.572;38.086;2023-04-16T02:15:49;5.74;89.57
67364;HTU21D;54250;45.572;38.086;2023-04-16T02:18:22;5.72;89.63
67364;HTU21D;54250;45.572;38.086;2023-04-16T02:20:48;5.70;89.73
67364;HTU21D;54250;45.572;38.086;2023-04-16T02:23:15;5.65;89.83
67364;HTU21D;54250;45.572;38.086;2023-04-16T02:25:44;5.66;89.90
67364;HTU21D;54250;45.572;38.086;2023-04-16T02:28:13;5.68;89.85
67364;HTU21D;54250;45.572;38.086;2023-04-16T02:30:41;5.69;89.80
67364;HTU21D;54250;45.572;38.086;2023-04-16T02:33:09;5.71;89.68
67364;HTU21D;54250;45.572;38.086;2023-04-16T02:35:39;5.70;89.77
67364;HTU21D;54250;45.572;38.086;2023-04-16T02:38:06;5.68;89.88
67364;HTU21D;54250;45.572;38.086;2023-04-16T02:40:34;5.64;90.02
67364;HTU21D;54250;45.572;38.086;2023-04-16T02:43:00;5.64;90.09
67364;HTU21D;54250;45.572;38.086;2023-04-16T02:45:27;5.65;90.05
67364;HTU21D;54250;45.572;38.086;2023-04-16T02:47:53;5.66;90.01
67364;HTU21D;54250;45.572;38.086;2023-04-16T02:50:19;5.63;90.01
67364;HTU21D;54250;45.572;38.086;2023-04-16T02:52:45;5.67;90.02
67364;HTU21D;54250;45.572;38.086;2023-04-16T02:55:11;5.69;89.95
67364;HTU21D;54250;45.572;38.086;2023-04-16T02:57:37;5.69;89.89
67364;HTU21D;54250;45.572;38.086;2023-04-16T03:00:03;5.69;89.98
67364;HTU21D;54250;45.572;38.086;2023-04-16T03:02:30;5.70;89.94
67364;HTU21D;54250;45.572;38.086;2023-04-16T03:04:56;5.68;89.93
67364;HTU21D;54250;45.572;38.086;2023-04-16T03:07:22;5.69;89.91
67364;HTU21D;54250;45.572;38.086;2023-04-16T03:09:48;5.69;89.90
67364;HTU21D;54250;45.572;38.086;2023-04-16T03:12:14;5.68;89.92
67364;HTU21D;54250;45.572;38.086;2023-04-16T03:14:40;5.69;89.89
67364;HTU21D;54250;45.572;38.086;2023-04-16T03:17:06;5.71;89.85
67364;HTU21D;54250;45.572;38.086;2023-04-16T03:19:32;5.74;89.74
67364;HTU21D;54250;45.572;38.086;2023-04-16T03:21:58;5.77;89.67
67364;HTU21D;54250;45.572;38.086;2023-04-16T03:24:25;5.78;89.66
67364;HTU21D;54250;45.572;38.086;2023-04-16T03:26:51;5.78;89.67
67364;HTU21D;54250;45.572;38.086;2023-04-16T03:29:20;5.77;89.73
67364;HTU21D;54250;45.572;38.086;2023-04-16T03:31:47;5.79;89.76
67364;HTU21D;54250;45.572;38.086;2023-04-16T03:34:13;5.79;89.81
67364;HTU21D;54250;45.572;38.086;2023-04-16T03:36:41;5.77;89.83
67364;HTU21D;54250;45.572;38.086;2023-04-16T03:39:07;5.80;89.79
67364;HTU21D;54250;45.572;38.086;2023-04-16T03:41:33;5.83;89.80
67364;HTU21D;54250;45.572;38.086;2023-04-16T03:44:00;5.82;89.95
67364;HTU21D;54250;45.572;38.086;2023-04-16T03:46:26;5.85;89.99
67364;HTU21D;54250;45.572;38.086;2023-04-16T03:48:52;5.86;90.04
67364;HTU21D;54250;45.572;38.086;2023-04-16T03:51:18;5.90;90.04
67364;HTU21D;54250;45.572;38.086;2023-04-16T03:53:45;5.94;90.02
67364;HTU21D;54250;45.572;38.086;2023-04-16T03:56:12;5.96;90.00
67364;HTU21D;54250;45.572;38.086;2023-04-16T03:58:39;5.99;89.96
67364;HTU21D;54250;45.572;38.086;2023-04-16T04:01:06;6.01;89.98
67364;HTU21D;54250;45.572;38.086;2023-04-16T04:03:34;6.00;90.14
67364;HTU21D;54250;45.572;38.086;2023-04-16T04:06:01;6.06;90.12
67364;HTU21D;54250;45.572;38.086;2023-04-16T04:08:31;6.09;90.08
67364;HTU21D;54250;45.572;38.086;2023-04-16T04:10:57;6.14;90.04
67364;HTU21D;54250;45.572;38.086;2023-04-16T04:13:24;6.19;89.99
67364;HTU21D;54250;45.572;38.086;2023-04-16T04:15:51;6.14;90.09
67364;HTU21D;54250;45.572;38.086;2023-04-16T04:18:18;6.17;90.15
67364;HTU21D;54250;45.572;38.086;2023-04-16T04:20:44;6.23;90.08
67364;HTU21D;54250;45.572;38.086;2023-04-16T04:23:14;6.26;90.06
67364;HTU21D;54250;45.572;38.086;2023-04-16T04:25:40;6.30;90.04
67364;HTU21D;54250;45.572;38.086;2023-04-16T04:28:06;6.39;89.90
67364;HTU21D;54250;45.572;38.086;2023-04-16T04:30:32;6.43;89.77
67364;HTU21D;54250;45.572;38.086;2023-04-16T04:33:01;6.45;89.75
67364;HTU21D;54250;45.572;38.086;2023-04-16T04:35:27;6.48;89.75
67364;HTU21D;54250;45.572;38.086;2023-04-16T04:37:54;6.45;89.76
67364;HTU21D;54250;45.572;38.086;2023-04-16T04:40:20;6.50;89.72
67364;HTU21D;54250;45.572;38.086;2023-04-16T04:42:46;6.56;89.59
67364;HTU21D;54250;45.572;38.086;2023-04-16T04:45:12;6.60;89.37
67364;HTU21D;54250;45.572;38.086;2023-04-16T04:47:40;6.65;89.25
67364;HTU21D;54250;45.572;38.086;2023-04-16T04:50:06;6.67;89.14
67364;HTU21D;54250;45.572;38.086;2023-04-16T04:52:33;6.70;89.02
67364;HTU21D;54250;45.572;38.086;2023-04-16T04:55:00;6.75;88.89
67364;HTU21D;54250;45.572;38.086;2023-04-16T04:57:26;6.82;88.65
67364;HTU21D;54250;45.572;38.086;2023-04-16T04:59:53;6.85;88.44
67364;HTU21D;54250;45.572;38.086;2023-04-16T05:02:20;6.89;88.26
67364;HTU21D;54250;45.572;38.086;2023-04-16T05:04:46;6.99;88.12
67364;HTU21D;54250;45.572;38.086;2023-04-16T05:07:12;7.01;87.84
67364;HTU21D;54250;45.572;38.086;2023-04-16T05:09:38;7.07;87.78
67364;HTU21D;54250;45.572;38.086;2023-04-16T05:12:04;7.10;87.48
67364;HTU21D;54250;45.572;38.086;2023-04-16T05:14:30;7.19;87.38
67364;HTU21D;54250;45.572;38.086;2023-04-16T05:16:56;7.22;87.06
67364;HTU21D;54250;45.572;38.086;2023-04-16T05:19:22;7.33;87.00
67364;HTU21D;54250;45.572;38.086;2023-04-16T05:21:48;7.40;86.78
67364;HTU21D;54250;45.572;38.086;2023-04-16T05:24:14;7.46;86.54
67364;HTU21D;54250;45.572;38.086;2023-04-16T05:26:40;7.53;86.41
67364;HTU21D;54250;45.572;38.086;2023-04-16T05:29:06;7.65;86.22
67364;HTU21D;54250;45.572;38.086;2023-04-16T05:31:32;7.75;85.83
67364;HTU21D;54250;45.572;38.086;2023-04-16T05:33:58;7.85;85.60
67364;HTU21D;54250;45.572;38.086;2023-04-16T05:36:24;8.00;85.42
67364;HTU21D;54250;45.572;38.086;2023-04-16T05:38:50;8.07;84.98
67364;HTU21D;54250;45.572;38.086;2023-04-16T05:41:16;8.19;84.87
67364;HTU21D;54250;45.572;38.086;2023-04-16T05:43:42;8.27;84.39
67364;HTU21D;54250;45.572;38.086;2023-04-16T05:46:08;8.36;84.04
67364;HTU21D;54250;45.572;38.086;2023-04-16T05:48:34;8.46;83.78
67364;HTU21D;54250;45.572;38.086;2023-04-16T05:51:00;8.57;83.26
67364;HTU21D;54250;45.572;38.086;2023-04-16T05:53:27;8.63;82.89
67364;HTU21D;54250;45.572;38.086;2023-04-16T05:55:53;8.83;82.80
67364;HTU21D;54250;45.572;38.086;2023-04-16T05:58:19;8.95;82.19
67364;HTU21D;54250;45.572;38.086;2023-04-16T06:00:45;9.06;81.83
67364;HTU21D;54250;45.572;38.086;2023-04-16T06:03:11;9.35;81.57
67364;HTU21D;54250;45.572;38.086;2023-04-16T06:05:37;9.59;80.87
67364;HTU21D;54250;45.572;38.086;2023-04-16T06:08:03;9.85;80.17
67364;HTU21D;54250;45.572;38.086;2023-04-16T06:10:29;10.10;79.37
67364;HTU21D;54250;45.572;38.086;2023-04-16T06:12:55;10.31;79.19
67364;HTU21D;54250;45.572;38.086;2023-04-16T06:15:21;10.74;78.61
67364;HTU21D;54250;45.572;38.086;2023-04-16T06:17:48;11.28;77.53
67364;HTU21D;54250;45.572;38.086;2023-04-16T06:20:14;11.56;75.79
67364;HTU21D;54250;45.572;38.086;2023-04-16T06:22:40;11.99;75.32
67364;HTU21D;54250;45.572;38.086;2023-04-16T06:25:07;12.78;73.66
67364;HTU21D;54250;45.572;38.086;2023-04-16T06:27:33;13.05;72.64
67364;HTU21D;54250;45.572;38.086;2023-04-16T06:29:59;13.08;72.78
67364;HTU21D;54250;45.572;38.086;2023-04-16T06:32:25;13.86;71.27
67364;HTU21D;54250;45.572;38.086;2023-04-16T06:34:51;14.42;69.60
67364;HTU21D;54250;45.572;38.086;2023-04-16T06:37:17;14.13;68.09
67364;HTU21D;54250;45.572;38.086;2023-04-16T06:39:43;13.94;68.81
67364;HTU21D;54250;45.572;38.086;2023-04-16T06:42:09;14.20;68.71
67364;HTU21D;54250;45.572;38.086;2023-04-16T06:44:37;14.88;67.11
67364;HTU21D;54250;45.572;38.086;2023-04-16T06:47:03;15.06;66.62
67364;HTU21D;54250;45.572;38.086;2023-04-16T06:49:29;15.19;65.08
67364;HTU21D;54250;45.572;38.086;2023-04-16T06:51:56;15.22;65.44
67364;HTU21D;54250;45.572;38.086;2023-04-16T06:54:22;15.36;64.72
67364;HTU21D;54250;45.572;38.086;2023-04-16T06:56:48;15.37;64.48
67364;HTU21D;54250;45.572;38.086;2023-04-16T06:59:14;15.31;64.98
67364;HTU21D;54250;45.572;38.086;2023-04-16T07:01:40;15.43;65.50
67364;HTU21D;54250;45.572;38.086;2023-04-16T07:04:07;15.85;64.27
67364;HTU21D;54250;45.572;38.086;2023-04-16T07:06:33;16.22;63.19
67364;HTU21D;54250;45.572;38.086;2023-04-16T07:08:59;15.88;62.89
67364;HTU21D;54250;45.572;38.086;2023-04-16T07:11:25;15.98;63.21
67364;HTU21D;54250;45.572;38.086;2023-04-16T07:13:51;16.22;63.11
67364;HTU21D;54250;45.572;38.086;2023-04-16T07:16:18;16.73;62.14
67364;HTU21D;54250;45.572;38.086;2023-04-16T07:18:44;16.79;61.51
67364;HTU21D;54250;45.572;38.086;2023-04-16T07:21:10;17.10;61.22
67364;HTU21D;54250;45.572;38.086;2023-04-16T07:23:36;17.59;60.15
67364;HTU21D;54250;45.572;38.086;2023-04-16T07:26:02;17.73;59.69
67364;HTU21D;54250;45.572;38.086;2023-04-16T07:28:28;17.59;59.90
67364;HTU21D;54250;45.572;38.086;2023-04-16T07:30:54;17.29;58.97
67364;HTU21D;54250;45.572;38.086;2023-04-16T07:33:20;17.30;59.86
67364;HTU21D;54250;45.572;38.086;2023-04-16T07:35:46;17.58;58.93
67364;HTU21D;54250;45.572;38.086;2023-04-16T07:38:12;17.31;59.19
67364;HTU21D;54250;45.572;38.086;2023-04-16T07:40:39;17.50;58.87
67364;HTU21D;54250;45.572;38.086;2023-04-16T07:43:05;17.32;59.14
67364;HTU21D;54250;45.572;38.086;2023-04-16T07:45:31;17.29;58.63
67364;HTU21D;54250;45.572;38.086;2023-04-16T07:47:57;17.25;58.46
67364;HTU21D;54250;45.572;38.086;2023-04-16T07:50:24;17.17;58.25
67364;HTU21D;54250;45.572;38.086;2023-04-16T07:52:50;17.16;57.98
67364;HTU21D;54250;45.572;38.086;2023-04-16T07:55:16;17.20;58.26
67364;HTU21D;54250;45.572;38.086;2023-04-16T07:57:42;17.24;58.06
67364;HTU21D;54250;45.572;38.086;2023-04-16T08:00:10;17.37;57.20
67364;HTU21D;54250;45.572;38.086;2023-04-16T08:02:40;17.28;56.83
67364;HTU21D;54250;45.572;38.086;2023-04-16T08:05:06;17.49;56.71
67364;HTU21D;54250;45.572;38.086;2023-04-16T08:07:32;17.75;56.74
67364;HTU21D;54250;45.572;38.086;2023-04-16T08:09:58;17.89;55.34
67364;HTU21D;54250;45.572;38.086;2023-04-16T08:12:24;17.88;55.20
67364;HTU21D;54250;45.572;38.086;2023-04-16T08:14:50;17.91;55.49
67364;HTU21D;54250;45.572;38.086;2023-04-16T08:17:16;18.26;54.89
67364;HTU21D;54250;45.572;38.086;2023-04-16T08:19:43;18.34;54.84
67364;HTU21D;54250;45.572;38.086;2023-04-16T08:22:11;18.57;54.28
67364;HTU21D;54250;45.572;38.086;2023-04-16T08:24:37;18.64;54.25
67364;HTU21D;54250;45.572;38.086;2023-04-16T08:27:03;18.56;53.55
67364;HTU21D;54250;45.572;38.086;2023-04-16T08:29:30;18.42;54.07
67364;HTU21D;54250;45.572;38.086;2023-04-16T08:31:59;18.66;54.20
67364;HTU21D;54250;45.572;38.086;2023-04-16T08:34:25;18.91;53.67
67364;HTU21D;54250;45.572;38.086;2023-04-16T08:36:51;18.87;53.48
67364;HTU21D;54250;45.572;38.086;2023-04-16T08:39:17;19.10;53.66
67364;HTU21D;54250;45.572;38.086;2023-04-16T08:41:45;19.65;53.19
67364;HTU21D;54250;45.572;38.086;2023-04-16T08:44:22;19.36;52.53
67364;HTU21D;54250;45.572;38.086;2023-04-16T08:46:52;19.15;53.33
67364;HTU21D;54250;45.572;38.086;2023-04-16T08:49:25;19.54;52.72
67364;HTU21D;54250;45.572;38.086;2023-04-16T08:51:53;19.18;52.71
67364;HTU21D;54250;45.572;38.086;2023-04-16T08:54:53;19.16;52.85
67364;HTU21D;54250;45.572;38.086;2023-04-16T08:57:22;18.81;53.14
67364;HTU21D;54250;45.572;38.086;2023-04-16T08:59:49;18.88;53.62
67364;HTU21D;54250;45.572;38.086;2023-04-16T09:02:16;18.93;53.46
67364;HTU21D;54250;45.572;38.086;2023-04-16T09:04:43;18.62;53.43
67364;HTU21D;54250;45.572;38.086;2023-04-16T09:07:10;18.48;53.87
67364;HTU21D;54250;45.572;38.086;2023-04-16T09:09:37;18.74;53.88
67364;HTU21D;54250;45.572;38.086;2023-04-16T09:12:04;18.66;53.87
67364;HTU21D;54250;45.572;38.086;2023-04-16T09:14:30;18.67;54.21
67364;HTU21D;54250;45.572;38.086;2023-04-16T09:16:56;18.84;53.85
67364;HTU21D;54250;45.572;38.086;2023-04-16T09:19:26;18.71;54.13
67364;HTU21D;54250;45.572;38.086;2023-04-16T09:21:52;18.93;53.75
67364;HTU21D;54250;45.572;38.086;2023-04-16T09:24:18;18.74;53.80
67364;HTU21D;54250;45.572;38.086;2023-04-16T09:26:45;18.73;53.99
67364;HTU21D;54250;45.572;38.086;2023-04-16T09:29:50;18.59;54.46
67364;HTU21D;54250;45.572;38.086;2023-04-16T09:32:10;18.49;54.02
67364;HTU21D;54250;45.572;38.086;2023-04-16T09:35:09;18.41;54.97
67364;HTU21D;54250;45.572;38.086;2023-04-16T09:37:35;18.62;54.56
67364;HTU21D;54250;45.572;38.086;2023-04-16T09:40:02;18.40;54.41
67364;HTU21D;54250;45.572;38.086;2023-04-16T09:42:30;18.30;55.12
67364;HTU21D;54250;45.572;38.086;2023-04-16T09:44:57;18.51;54.78
67364;HTU21D;54250;45.572;38.086;2023-04-16T09:47:25;18.34;54.87
67364;HTU21D;54250;45.572;38.086;2023-04-16T09:50:02;17.76;55.65
67364;HTU21D;54250;45.572;38.086;2023-04-16T09:52:28;17.08;57.06
67364;HTU21D;54250;45.572;38.086;2023-04-16T09:54:55;16.60;58.38
67364;HTU21D;54250;45.572;38.086;2023-04-16T09:57:22;16.32;59.32
67364;HTU21D;54250;45.572;38.086;2023-04-16T10:00:02;16.25;59.46
67364;HTU21D;54250;45.572;38.086;2023-04-16T10:02:30;16.13;59.71
67364;HTU21D;54250;45.572;38.086;2023-04-16T10:04:56;16.04;60.13
67364;HTU21D;54250;45.572;38.086;2023-04-16T10:07:27;16.10;60.30
67364;HTU21D;54250;45.572;38.086;2023-04-16T10:09:53;15.93;59.91
67364;HTU21D;54250;45.572;38.086;2023-04-16T10:12:20;15.82;60.31
67364;HTU21D;54250;45.572;38.086;2023-04-16T10:14:46;15.84;60.51
67364;HTU21D;54250;45.572;38.086;2023-04-16T10:17:13;15.75;60.43
67364;HTU21D;54250;45.572;38.086;2023-04-16T10:19:40;15.55;60.40
67364;HTU21D;54250;45.572;38.086;2023-04-16T10:22:06;15.38;61.00
67364;HTU21D;54250;45.572;38.086;2023-04-16T10:24:33;15.52;61.27
67364;HTU21D;54250;45.572;38.086;2023-04-16T10:27:00;15.55;60.87
67364;HTU21D;54250;45.572;38.086;2023-04-16T10:29:27;15.60;61.21
67364;HTU21D;54250;45.572;38.086;2023-04-16T10:31:54;15.67;61.29
67364;HTU21D;54250;45.572;38.086;2023-04-16T10:34:23;15.66;61.44
67364;HTU21D;54250;45.572;38.086;2023-04-16T10:36:53;15.66;61.35
67364;HTU21D;54250;45.572;38.086;2023-04-16T10:39:22;15.68;61.21
67364;HTU21D;54250;45.572;38.086;2023-04-16T10:41:49;15.57;61.21
67364;HTU21D;54250;45.572;38.086;2023-04-16T10:44:17;15.54;61.50
67364;HTU21D;54250;45.572;38.086;2023-04-16T10:46:46;15.63;61.50
67364;HTU21D;54250;45.572;38.086;2023-04-16T10:49:22;15.72;61.58
67364;HTU21D;54250;45.572;38.086;2023-04-16T10:51:58;15.63;61.40
67364;HTU21D;54250;45.572;38.086;2023-04-16T10:54:28;15.39;61.44
67364;HTU21D;54250;45.572;38.086;2023-04-16T10:56:57;15.36;62.01
67364;HTU21D;54250;45.572;38.086;2023-04-16T10:59:26;15.58;62.24
67364;HTU21D;54250;45.572;38.086;2023-04-16T11:01:57;15.72;61.29
67364;HTU21D;54250;45.572;38.086;2023-04-16T11:12:14;15.39;62.20
67364;HTU21D;54250;45.572;38.086;2023-04-16T11:14:41;15.34;62.26
67364;HTU21D;54250;45.572;38.086;2023-04-16T11:17:08;15.46;62.50
67364;HTU21D;54250;45.572;38.086;2023-04-16T11:19:35;15.43;61.94
67364;HTU21D;54250;45.572;38.086;2023-04-16T11:22:03;15.38;62.24
67364;HTU21D;54250;45.572;38.086;2023-04-16T11:24:30;15.33;61.92
67364;HTU21D;54250;45.572;38.086;2023-04-16T11:26:56;15.27;61.95
67364;HTU21D;54250;45.572;38.086;2023-04-16T11:29:22;15.31;62.20
67364;HTU21D;54250;45.572;38.086;2023-04-16T11:31:52;15.27;62.12
67364;HTU21D;54250;45.572;38.086;2023-04-16T11:34:19;15.17;62.42
67364;HTU21D;54250;45.572;38.086;2023-04-16T11:36:47;15.15;62.50
67364;HTU21D;54250;45.572;38.086;2023-04-16T11:39:13;15.19;62.62
67364;HTU21D;54250;45.572;38.086;2023-04-16T11:41:46;15.18;62.66
67364;HTU21D;54250;45.572;38.086;2023-04-16T11:44:30;15.16;62.50
67364;HTU21D;54250;45.572;38.086;2023-04-16T11:46:56;15.19;62.56
67364;HTU21D;54250;45.572;38.086;2023-04-16T11:49:29;15.18;62.78
67364;HTU21D;54250;45.572;38.086;2023-04-16T11:51:56;15.19;62.66
67364;HTU21D;54250;45.572;38.086;2023-04-16T11:54:23;15.11;62.73
67364;HTU21D;54250;45.572;38.086;2023-04-16T11:56:51;15.16;62.86
67364;HTU21D;54250;45.572;38.086;2023-04-16T11:59:19;15.26;63.10
67364;HTU21D;54250;45.572;38.086;2023-04-16T12:01:49;15.26;62.86
67364;HTU21D;54250;45.572;38.086;2023-04-16T12:04:18;15.24;63.09
67364;HTU21D;54250;45.572;38.086;2023-04-16T12:07:12;15.28;63.27
67364;HTU21D;54250;45.572;38.086;2023-04-16T12:09:42;15.28;63.13
67364;HTU21D;54250;45.572;38.086;2023-04-16T12:12:25;15.25;63.11
67364;HTU21D;54250;45.572;38.086;2023-04-16T12:14:52;15.26;63.27
67364;HTU21D;54250;45.572;38.086;2023-04-16T12:17:19;15.30;63.21
67364;HTU21D;54250;45.572;38.086;2023-04-16T12:19:56;15.27;63.02
67364;HTU21D;54250;45.572;38.086;2023-04-16T12:22:30;15.29;63.14
67364;HTU21D;54250;45.572;38.086;2023-04-16T12:24:59;15.28;63.18
67364;HTU21D;54250;45.572;38.086;2023-04-16T12:27:25;15.28;63.31
67364;HTU21D;54250;45.572;38.086;2023-04-16T12:30:04;15.39;63.30
67364;HTU21D;54250;45.572;38.086;2023-04-16T12:32:32;15.33;62.93
67364;HTU21D;54250;45.572;38.086;2023-04-16T12:34:58;15.30;63.00
67364;HTU21D;54250;45.572;38.086;2023-04-16T12:37:24;15.28;63.05
67364;HTU21D;54250;45.572;38.086;2023-04-16T12:39:51;15.32;63.13
67364;HTU21D;54250;45.572;38.086;2023-04-16T12:42:17;15.30;62.95
67364;HTU21D;54250;45.572;38.086;2023-04-16T12:44:43;15.23;63.13
67364;HTU21D;54250;45.572;38.086;2023-04-16T12:47:09;15.21;63.13
67364;HTU21D;54250;45.572;38.086;2023-04-16T12:49:36;15.26;63.15
67364;HTU21D;54250;45.572;38.086;2023-04-16T12:52:02;15.30;63.30
67364;HTU21D;54250;45.572;38.086;2023-04-16T12:54:28;15.32;63.14
67364;HTU21D;54250;45.572;38.086;2023-04-16T12:56:56;15.27;63.29
67364;HTU21D;54250;45.572;38.086;2023-04-16T12:59:22;15.27;63.48
67364;HTU21D;54250;45.572;38.086;2023-04-16T13:01:48;15.25;63.23
67364;HTU21D;54250;45.572;38.086;2023-04-16T13:04:15;15.14;63.16
67364;HTU21D;54250;45.572;38.086;2023-04-16T13:06:42;15.11;63.21
67364;HTU21D;54250;45.572;38.086;2023-04-16T13:09:08;15.07;63.34
67364;HTU21D;54250;45.572;38.086;2023-04-16T13:11:34;14.98;63.47
67364;HTU21D;54250;45.572;38.086;2023-04-16T13:14:01;14.95;63.35
67364;HTU21D;54250;45.572;38.086;2023-04-16T13:16:27;14.92;63.22
67364;HTU21D;54250;45.572;38.086;2023-04-16T13:18:53;14.81;63.42
67364;HTU21D;54250;45.572;38.086;2023-04-16T13:21:19;14.80;63.69
67364;HTU21D;54250;45.572;38.086;2023-04-16T13:23:45;14.74;63.61
67364;HTU21D;54250;45.572;38.086;2023-04-16T13:26:11;14.70;63.77
67364;HTU21D;54250;45.572;38.086;2023-04-16T13:28:39;14.66;64.10
67364;HTU21D;54250;45.572;38.086;2023-04-16T13:31:06;14.63;63.85
67364;HTU21D;54250;45.572;38.086;2023-04-16T13:33:32;14.63;63.88
67364;HTU21D;54250;45.572;38.086;2023-04-16T13:35:58;14.57;63.82
67364;HTU21D;54250;45.572;38.086;2023-04-16T13:38:24;14.60;63.76
67364;HTU21D;54250;45.572;38.086;2023-04-16T13:40:51;14.59;64.07
67364;HTU21D;54250;45.572;38.086;2023-04-16T13:43:17;14.57;64.13
67364;HTU21D;54250;45.572;38.086;2023-04-16T13:45:43;14.53;64.09
67364;HTU21D;54250;45.572;38.086;2023-04-16T13:48:10;14.50;64.14
67364;HTU21D;54250;45.572;38.086;2023-04-16T13:50:36;14.45;64.37
67364;HTU21D;54250;45.572;38.086;2023-04-16T13:53:02;14.47;64.47
67364;HTU21D;54250;45.572;38.086;2023-04-16T13:55:30;14.50;64.46
67364;HTU21D;54250;45.572;38.086;2023-04-16T13:57:56;14.50;64.40
67364;HTU21D;54250;45.572;38.086;2023-04-16T14:00:24;14.48;64.57
67364;HTU21D;54250;45.572;38.086;2023-04-16T14:02:51;14.44;64.67
67364;HTU21D;54250;45.572;38.086;2023-04-16T14:05:17;14.43;64.79
67364;HTU21D;54250;45.572;38.086;2023-04-16T14:07:44;14.42;65.01
67364;HTU21D;54250;45.572;38.086;2023-04-16T14:10:12;14.39;64.92
67364;HTU21D;54250;45.572;38.086;2023-04-16T14:12:38;14.34;64.80
67364;HTU21D;54250;45.572;38.086;2023-04-16T14:15:05;14.29;64.82
67364;HTU21D;54250;45.572;38.086;2023-04-16T14:17:35;14.24;64.95
67364;HTU21D;54250;45.572;38.086;2023-04-16T14:20:05;14.21;64.76
67364;HTU21D;54250;45.572;38.086;2023-04-16T14:22:31;14.18;65.08
67364;HTU21D;54250;45.572;38.086;2023-04-16T14:24:58;14.15;65.28
67364;HTU21D;54250;45.572;38.086;2023-04-16T14:27:24;14.12;64.67
67364;HTU21D;54250;45.572;38.086;2023-04-16T14:29:50;14.11;64.60
67364;HTU21D;54250;45.572;38.086;2023-04-16T14:32:16;14.08;64.56
67364;HTU21D;54250;45.572;38.086;2023-04-16T14:34:42;14.06;64.45
67364;HTU21D;54250;45.572;38.086;2023-04-16T14:37:08;14.04;64.51
67364;HTU21D;54250;45.572;38.086;2023-04-16T14:39:34;13.98;64.55
67364;HTU21D;54250;45.572;38.086;2023-04-16T14:42:03;13.94;64.93
67364;HTU21D;54250;45.572;38.086;2023-04-16T14:44:30;13.88;65.13
67364;HTU21D;54250;45.572;38.086;2023-04-16T14:46:56;13.81;64.95
67364;HTU21D;54250;45.572;38.086;2023-04-16T14:49:22;13.77;64.76
67364;HTU21D;54250;45.572;38.086;2023-04-16T14:51:48;13.75;64.52
67364;HTU21D;54250;45.572;38.086;2023-04-16T14:54:14;13.69;63.97
67364;HTU21D;54250;45.572;38.086;2023-04-16T14:56:40;13.65;63.98
67364;HTU21D;54250;45.572;38.086;2023-04-16T14:59:06;13.63;64.21
67364;HTU21D;54250;45.572;38.086;2023-04-16T15:01:32;13.60;64.31
67364;HTU21D;54250;45.572;38.086;2023-04-16T15:04:00;13.51;64.26
67364;HTU21D;54250;45.572;38.086;2023-04-16T15:06:27;13.47;64.54
67364;HTU21D;54250;45.572;38.086;2023-04-16T15:08:53;13.43;64.58
67364;HTU21D;54250;45.572;38.086;2023-04-16T15:11:19;13.40;64.76
67364;HTU21D;54250;45.572;38.086;2023-04-16T15:13:45;13.34;65.05
67364;HTU21D;54250;45.572;38.086;2023-04-16T15:16:11;13.27;65.31